Aviation Digital Data Service (ADDS)

Output produced by METARs form (1113 UTC 04 March 2015)
found at http://aviationweather.gov/adds/metars/
 
METAR text: KBFM 041053Z 16007KT 1/4SM FG VV002 18/17 A3003 RMK AO2 SLP168 T01780172
Conditions at: KBFM (MOBILE/BROOKLEY , AL, US) observed 1053 UTC 04 March 2015
Temperature: 17.8°C (64°F)
Dewpoint: 17.2°C (63°F) [RH = 96%]
Pressure (altimeter): 30.03 inches Hg (1017.0 mb)
[Sea-level pressure: 1016.8 mb]
Winds: from the SSE (160 degrees) at 8 MPH (7 knots; 3.6 m/s)
Visibility: 0.25 miles (0.40 km)
Ceiling: indefinite ceiling with vertical visibility of 200 feet AGL
Clouds: obscured sky
Weather: FG  (fog)